sensor_id;sensor_type;location;lat;lon;timestamp;P1;durP1;ratioP1;P2;durP2;ratioP2
50443;SDS011;36370;52.216;21.142;2022-09-09T00:10:16;19.88;;;10.38;;
50443;SDS011;36370;52.216;21.142;2022-09-09T00:19:24;22.95;;;11.85;;
50443;SDS011;36370;52.216;21.142;2022-09-09T00:23:39;19.52;;;9.95;;
50443;SDS011;36370;52.216;21.142;2022-09-09T00:27:49;18.98;;;9.93;;
50443;SDS011;36370;52.216;21.142;2022-09-09T00:31:54;20.92;;;10.80;;
50443;SDS011;36370;52.216;21.142;2022-09-09T00:36:01;17.58;;;10.18;;
50443;SDS011;36370;52.216;21.142;2022-09-09T00:40:11;22.33;;;10.75;;
50443;SDS011;36370;52.216;21.142;2022-09-09T00:44:39;23.35;;;10.38;;
50443;SDS011;36370;52.216;21.142;2022-09-09T01:01:33;18.92;;;10.30;;
50443;SDS011;36370;52.216;21.142;2022-09-09T01:18:43;24.50;;;13.15;;
50443;SDS011;36370;52.216;21.142;2022-09-09T01:23:02;24.20;;;12.37;;
50443;SDS011;36370;52.216;21.142;2022-09-09T01:27:08;20.30;;;12.07;;
50443;SDS011;36370;52.216;21.142;2022-09-09T01:31:14;20.92;;;11.82;;
50443;SDS011;36370;52.216;21.142;2022-09-09T01:39:46;24.25;;;12.98;;
50443;SDS011;36370;52.216;21.142;2022-09-09T01:43:52;19.00;;;13.00;;
50443;SDS011;36370;52.216;21.142;2022-09-09T01:47:56;27.40;;;15.85;;
50443;SDS011;36370;52.216;21.142;2022-09-09T01:52:13;24.85;;;13.68;;
50443;SDS011;36370;52.216;21.142;2022-09-09T02:00:49;23.42;;;14.32;;
50443;SDS011;36370;52.216;21.142;2022-09-09T02:09:27;22.67;;;12.65;;
50443;SDS011;36370;52.216;21.142;2022-09-09T02:13:34;25.10;;;13.85;;
50443;SDS011;36370;52.216;21.142;2022-09-09T02:17:41;20.98;;;12.65;;
50443;SDS011;36370;52.216;21.142;2022-09-09T02:25:54;25.42;;;12.88;;
50443;SDS011;36370;52.216;21.142;2022-09-09T02:30:00;22.92;;;13.52;;
50443;SDS011;36370;52.216;21.142;2022-09-09T02:34:11;26.88;;;15.65;;
50443;SDS011;36370;52.216;21.142;2022-09-09T02:38:17;25.20;;;15.68;;
50443;SDS011;36370;52.216;21.142;2022-09-09T02:42:38;23.95;;;15.93;;
50443;SDS011;36370;52.216;21.142;2022-09-09T02:46:50;25.80;;;16.30;;
50443;SDS011;36370;52.216;21.142;2022-09-09T02:51:24;22.45;;;14.60;;
50443;SDS011;36370;52.216;21.142;2022-09-09T02:55:47;27.23;;;15.13;;
50443;SDS011;36370;52.216;21.142;2022-09-09T02:59:56;31.17;;;17.65;;
50443;SDS011;36370;52.216;21.142;2022-09-09T03:04:00;26.25;;;16.67;;
50443;SDS011;36370;52.216;21.142;2022-09-09T03:08:04;26.50;;;14.80;;
50443;SDS011;36370;52.216;21.142;2022-09-09T03:12:10;27.50;;;14.85;;
50443;SDS011;36370;52.216;21.142;2022-09-09T03:16:14;22.80;;;12.95;;
50443;SDS011;36370;52.216;21.142;2022-09-09T03:20:21;23.77;;;15.45;;
50443;SDS011;36370;52.216;21.142;2022-09-09T03:24:25;26.70;;;16.08;;
50443;SDS011;36370;52.216;21.142;2022-09-09T03:28:28;22.65;;;14.48;;
50443;SDS011;36370;52.216;21.142;2022-09-09T03:32:36;25.08;;;17.25;;
50443;SDS011;36370;52.216;21.142;2022-09-09T03:36:38;28.00;;;17.17;;
50443;SDS011;36370;52.216;21.142;2022-09-09T03:40:48;25.08;;;16.08;;
50443;SDS011;36370;52.216;21.142;2022-09-09T03:44:51;33.22;;;21.17;;
50443;SDS011;36370;52.216;21.142;2022-09-09T03:48:57;31.38;;;18.35;;
50443;SDS011;36370;52.216;21.142;2022-09-09T03:52:59;24.75;;;17.02;;
50443;SDS011;36370;52.216;21.142;2022-09-09T03:57:02;22.65;;;14.00;;
50443;SDS011;36370;52.216;21.142;2022-09-09T04:01:07;20.50;;;15.40;;
50443;SDS011;36370;52.216;21.142;2022-09-09T04:05:17;17.25;;;11.95;;
50443;SDS011;36370;52.216;21.142;2022-09-09T04:09:21;15.82;;;10.52;;
50443;SDS011;36370;52.216;21.142;2022-09-09T04:13:25;15.15;;;10.30;;
50443;SDS011;36370;52.216;21.142;2022-09-09T04:17:29;15.90;;;9.90;;
50443;SDS011;36370;52.216;21.142;2022-09-09T04:21:32;16.50;;;11.35;;
50443;SDS011;36370;52.216;21.142;2022-09-09T04:25:36;14.93;;;10.20;;
50443;SDS011;36370;52.216;21.142;2022-09-09T04:29:38;16.55;;;11.70;;
50443;SDS011;36370;52.216;21.142;2022-09-09T04:33:40;23.77;;;14.95;;
50443;SDS011;36370;52.216;21.142;2022-09-09T04:37:44;18.55;;;14.43;;
50443;SDS011;36370;52.216;21.142;2022-09-09T04:41:46;14.98;;;11.75;;
50443;SDS011;36370;52.216;21.142;2022-09-09T04:45:50;21.20;;;15.10;;
50443;SDS011;36370;52.216;21.142;2022-09-09T04:49:56;14.73;;;11.20;;
50443;SDS011;36370;52.216;21.142;2022-09-09T04:53:59;15.02;;;9.15;;
50443;SDS011;36370;52.216;21.142;2022-09-09T04:58:05;12.45;;;10.35;;
50443;SDS011;36370;52.216;21.142;2022-09-09T05:02:09;19.30;;;11.57;;
50443;SDS011;36370;52.216;21.142;2022-09-09T05:06:14;16.17;;;9.63;;
50443;SDS011;36370;52.216;21.142;2022-09-09T05:10:17;15.25;;;8.23;;
50443;SDS011;36370;52.216;21.142;2022-09-09T05:14:43;12.98;;;9.57;;
50443;SDS011;36370;52.216;21.142;2022-09-09T05:18:46;14.80;;;10.52;;
50443;SDS011;36370;52.216;21.142;2022-09-09T05:22:52;18.40;;;10.75;;
50443;SDS011;36370;52.216;21.142;2022-09-09T05:26:57;11.63;;;9.57;;
50443;SDS011;36370;52.216;21.142;2022-09-09T05:31:03;10.55;;;9.10;;
50443;SDS011;36370;52.216;21.142;2022-09-09T05:35:15;13.38;;;10.05;;
50443;SDS011;36370;52.216;21.142;2022-09-09T05:39:18;16.27;;;11.60;;
50443;SDS011;36370;52.216;21.142;2022-09-09T05:43:20;11.95;;;9.38;;
50443;SDS011;36370;52.216;21.142;2022-09-09T05:47:22;10.82;;;8.65;;
50443;SDS011;36370;52.216;21.142;2022-09-09T05:51:26;9.90;;;7.88;;
50443;SDS011;36370;52.216;21.142;2022-09-09T05:55:34;12.43;;;9.18;;
50443;SDS011;36370;52.216;21.142;2022-09-09T05:59:38;10.80;;;8.73;;
50443;SDS011;36370;52.216;21.142;2022-09-09T06:03:41;10.10;;;7.90;;
50443;SDS011;36370;52.216;21.142;2022-09-09T06:07:45;12.50;;;10.02;;
50443;SDS011;36370;52.216;21.142;2022-09-09T06:11:48;16.83;;;11.80;;
50443;SDS011;36370;52.216;21.142;2022-09-09T06:15:53;13.90;;;9.90;;
50443;SDS011;36370;52.216;21.142;2022-09-09T06:19:55;12.05;;;9.20;;
50443;SDS011;36370;52.216;21.142;2022-09-09T06:23:58;11.65;;;9.52;;
50443;SDS011;36370;52.216;21.142;2022-09-09T06:28:02;17.17;;;12.02;;
50443;SDS011;36370;52.216;21.142;2022-09-09T06:32:04;15.65;;;12.38;;
50443;SDS011;36370;52.216;21.142;2022-09-09T06:36:16;16.48;;;11.48;;
50443;SDS011;36370;52.216;21.142;2022-09-09T06:40:20;15.43;;;10.57;;
50443;SDS011;36370;52.216;21.142;2022-09-09T06:44:22;14.93;;;11.35;;
50443;SDS011;36370;52.216;21.142;2022-09-09T06:48:25;16.58;;;11.27;;
50443;SDS011;36370;52.216;21.142;2022-09-09T06:52:35;20.92;;;15.43;;
50443;SDS011;36370;52.216;21.142;2022-09-09T06:56:47;17.85;;;13.52;;
50443;SDS011;36370;52.216;21.142;2022-09-09T07:01:03;32.72;;;21.38;;
50443;SDS011;36370;52.216;21.142;2022-09-09T07:05:09;16.13;;;12.18;;
50443;SDS011;36370;52.216;21.142;2022-09-09T07:09:13;18.48;;;13.45;;
50443;SDS011;36370;52.216;21.142;2022-09-09T07:13:24;20.27;;;13.30;;
50443;SDS011;36370;52.216;21.142;2022-09-09T07:17:28;27.23;;;17.05;;
50443;SDS011;36370;52.216;21.142;2022-09-09T07:21:33;18.02;;;13.27;;
50443;SDS011;36370;52.216;21.142;2022-09-09T07:25:36;24.10;;;16.35;;
50443;SDS011;36370;52.216;21.142;2022-09-09T07:29:38;18.88;;;13.88;;
50443;SDS011;36370;52.216;21.142;2022-09-09T07:33:42;24.33;;;16.00;;
50443;SDS011;36370;52.216;21.142;2022-09-09T07:37:47;26.20;;;15.38;;
50443;SDS011;36370;52.216;21.142;2022-09-09T07:41:53;20.13;;;13.13;;
50443;SDS011;36370;52.216;21.142;2022-09-09T07:45:58;20.50;;;15.15;;
50443;SDS011;36370;52.216;21.142;2022-09-09T07:50:00;26.42;;;17.40;;
50443;SDS011;36370;52.216;21.142;2022-09-09T07:54:06;20.58;;;14.10;;
50443;SDS011;36370;52.216;21.142;2022-09-09T07:58:12;21.83;;;14.05;;
50443;SDS011;36370;52.216;21.142;2022-09-09T08:02:15;19.65;;;13.77;;
50443;SDS011;36370;52.216;21.142;2022-09-09T08:06:18;18.10;;;12.30;;
50443;SDS011;36370;52.216;21.142;2022-09-09T08:10:20;22.80;;;12.65;;
50443;SDS011;36370;52.216;21.142;2022-09-09T08:14:25;26.30;;;17.52;;
50443;SDS011;36370;52.216;21.142;2022-09-09T08:18:27;29.70;;;17.77;;
50443;SDS011;36370;52.216;21.142;2022-09-09T08:22:30;16.75;;;13.43;;
50443;SDS011;36370;52.216;21.142;2022-09-09T08:26:34;21.90;;;13.18;;
50443;SDS011;36370;52.216;21.142;2022-09-09T08:30:40;15.63;;;11.38;;
50443;SDS011;36370;52.216;21.142;2022-09-09T08:34:42;25.38;;;14.65;;
50443;SDS011;36370;52.216;21.142;2022-09-09T08:38:54;20.10;;;13.35;;
50443;SDS011;36370;52.216;21.142;2022-09-09T08:42:59;22.17;;;14.55;;
50443;SDS011;36370;52.216;21.142;2022-09-09T08:51:26;18.45;;;13.18;;
50443;SDS011;36370;52.216;21.142;2022-09-09T08:55:36;24.90;;;15.52;;
50443;SDS011;36370;52.216;21.142;2022-09-09T08:59:45;27.27;;;19.27;;
50443;SDS011;36370;52.216;21.142;2022-09-09T09:03:57;30.98;;;18.45;;
50443;SDS011;36370;52.216;21.142;2022-09-09T09:12:26;27.35;;;15.73;;
50443;SDS011;36370;52.216;21.142;2022-09-09T09:16:34;27.83;;;15.80;;
50443;SDS011;36370;52.216;21.142;2022-09-09T09:20:50;30.52;;;20.00;;
50443;SDS011;36370;52.216;21.142;2022-09-09T09:25:03;27.33;;;17.88;;
50443;SDS011;36370;52.216;21.142;2022-09-09T09:29:15;35.53;;;21.60;;
50443;SDS011;36370;52.216;21.142;2022-09-09T09:37:29;37.92;;;22.13;;
50443;SDS011;36370;52.216;21.142;2022-09-09T09:41:40;30.75;;;17.88;;
50443;SDS011;36370;52.216;21.142;2022-09-09T09:45:46;31.13;;;19.52;;
50443;SDS011;36370;52.216;21.142;2022-09-09T09:50:16;38.15;;;24.83;;
50443;SDS011;36370;52.216;21.142;2022-09-09T09:54:26;38.45;;;24.38;;
50443;SDS011;36370;52.216;21.142;2022-09-09T10:02:48;35.42;;;21.63;;
50443;SDS011;36370;52.216;21.142;2022-09-09T10:06:58;35.13;;;20.70;;
50443;SDS011;36370;52.216;21.142;2022-09-09T10:32:50;49.03;;;26.33;;
50443;SDS011;36370;52.216;21.142;2022-09-09T10:37:06;37.42;;;23.73;;
50443;SDS011;36370;52.216;21.142;2022-09-09T10:54:34;34.30;;;22.27;;
50443;SDS011;36370;52.216;21.142;2022-09-09T10:59:00;37.20;;;22.52;;
50443;SDS011;36370;52.216;21.142;2022-09-09T11:03:21;42.22;;;27.27;;
50443;SDS011;36370;52.216;21.142;2022-09-09T11:07:40;35.88;;;21.45;;
50443;SDS011;36370;52.216;21.142;2022-09-09T11:11:58;57.67;;;34.50;;
50443;SDS011;36370;52.216;21.142;2022-09-09T11:16:05;39.80;;;25.45;;
50443;SDS011;36370;52.216;21.142;2022-09-09T11:20:15;45.38;;;27.15;;
50443;SDS011;36370;52.216;21.142;2022-09-09T11:24:22;52.53;;;31.38;;
50443;SDS011;36370;52.216;21.142;2022-09-09T11:33:26;43.08;;;27.10;;
50443;SDS011;36370;52.216;21.142;2022-09-09T11:42:20;52.35;;;31.20;;
50443;SDS011;36370;52.216;21.142;2022-09-09T11:46:32;46.65;;;28.48;;
50443;SDS011;36370;52.216;21.142;2022-09-09T11:50:39;43.67;;;27.77;;
50443;SDS011;36370;52.216;21.142;2022-09-09T11:54:46;49.88;;;31.30;;
50443;SDS011;36370;52.216;21.142;2022-09-09T12:07:55;52.72;;;30.85;;
50443;SDS011;36370;52.216;21.142;2022-09-09T12:16:31;47.25;;;28.27;;
50443;SDS011;36370;52.216;21.142;2022-09-09T12:20:36;44.60;;;28.10;;
50443;SDS011;36370;52.216;21.142;2022-09-09T12:28:54;54.55;;;31.92;;
50443;SDS011;36370;52.216;21.142;2022-09-09T12:33:13;51.65;;;30.95;;
50443;SDS011;36370;52.216;21.142;2022-09-09T12:37:33;48.85;;;28.33;;
50443;SDS011;36370;52.216;21.142;2022-09-09T12:45:40;48.53;;;26.35;;
50443;SDS011;36370;52.216;21.142;2022-09-09T12:49:43;53.03;;;31.48;;
50443;SDS011;36370;52.216;21.142;2022-09-09T12:53:45;62.03;;;33.92;;
50443;SDS011;36370;52.216;21.142;2022-09-09T12:57:48;52.03;;;29.67;;
50443;SDS011;36370;52.216;21.142;2022-09-09T13:01:55;55.05;;;32.33;;
50443;SDS011;36370;52.216;21.142;2022-09-09T13:06:11;48.75;;;27.80;;
50443;SDS011;36370;52.216;21.142;2022-09-09T13:10:20;53.22;;;28.10;;
50443;SDS011;36370;52.216;21.142;2022-09-09T13:14:44;47.88;;;27.77;;
50443;SDS011;36370;52.216;21.142;2022-09-09T13:18:52;54.95;;;31.55;;
50443;SDS011;36370;52.216;21.142;2022-09-09T13:22:54;49.47;;;27.75;;
50443;SDS011;36370;52.216;21.142;2022-09-09T13:26:58;49.13;;;27.27;;
50443;SDS011;36370;52.216;21.142;2022-09-09T13:31:18;53.35;;;27.52;;
50443;SDS011;36370;52.216;21.142;2022-09-09T13:35:23;57.92;;;31.85;;
50443;SDS011;36370;52.216;21.142;2022-09-09T13:39:26;52.00;;;27.65;;
50443;SDS011;36370;52.216;21.142;2022-09-09T13:43:28;50.35;;;28.40;;
50443;SDS011;36370;52.216;21.142;2022-09-09T13:47:34;42.30;;;24.00;;
50443;SDS011;36370;52.216;21.142;2022-09-09T13:51:38;51.65;;;28.55;;
50443;SDS011;36370;52.216;21.142;2022-09-09T13:55:48;49.75;;;27.98;;
50443;SDS011;36370;52.216;21.142;2022-09-09T13:59:54;49.42;;;26.95;;
50443;SDS011;36370;52.216;21.142;2022-09-09T14:04:07;53.28;;;29.90;;
50443;SDS011;36370;52.216;21.142;2022-09-09T14:08:20;49.72;;;28.48;;
50443;SDS011;36370;52.216;21.142;2022-09-09T14:12:25;65.88;;;35.20;;
50443;SDS011;36370;52.216;21.142;2022-09-09T14:16:28;53.78;;;29.45;;
50443;SDS011;36370;52.216;21.142;2022-09-09T14:20:31;52.72;;;29.83;;
50443;SDS011;36370;52.216;21.142;2022-09-09T14:24:34;52.35;;;30.38;;
50443;SDS011;36370;52.216;21.142;2022-09-09T14:28:37;55.60;;;30.02;;
50443;SDS011;36370;52.216;21.142;2022-09-09T14:32:56;47.67;;;28.77;;
50443;SDS011;36370;52.216;21.142;2022-09-09T14:36:58;58.58;;;31.88;;
50443;SDS011;36370;52.216;21.142;2022-09-09T14:41:01;64.18;;;32.45;;
50443;SDS011;36370;52.216;21.142;2022-09-09T14:45:05;53.65;;;31.27;;
50443;SDS011;36370;52.216;21.142;2022-09-09T14:49:08;56.30;;;31.17;;
50443;SDS011;36370;52.216;21.142;2022-09-09T14:53:12;61.67;;;31.55;;
50443;SDS011;36370;52.216;21.142;2022-09-09T14:57:14;56.65;;;33.17;;
50443;SDS011;36370;52.216;21.142;2022-09-09T15:01:18;73.43;;;38.58;;
50443;SDS011;36370;52.216;21.142;2022-09-09T15:05:21;44.92;;;28.38;;
50443;SDS011;36370;52.216;21.142;2022-09-09T15:09:24;66.65;;;37.92;;
50443;SDS011;36370;52.216;21.142;2022-09-09T15:13:26;53.17;;;31.95;;
50443;SDS011;36370;52.216;21.142;2022-09-09T15:17:29;54.42;;;29.85;;
50443;SDS011;36370;52.216;21.142;2022-09-09T15:21:32;52.78;;;29.45;;
50443;SDS011;36370;52.216;21.142;2022-09-09T15:25:36;52.58;;;29.27;;
50443;SDS011;36370;52.216;21.142;2022-09-09T15:29:38;54.50;;;30.70;;
50443;SDS011;36370;52.216;21.142;2022-09-09T15:33:41;56.08;;;31.10;;
50443;SDS011;36370;52.216;21.142;2022-09-09T15:37:43;57.63;;;31.33;;
50443;SDS011;36370;52.216;21.142;2022-09-09T15:41:46;58.00;;;33.40;;
50443;SDS011;36370;52.216;21.142;2022-09-09T15:45:52;47.95;;;29.38;;
50443;SDS011;36370;52.216;21.142;2022-09-09T15:50:00;55.22;;;32.55;;
50443;SDS011;36370;52.216;21.142;2022-09-09T15:54:02;60.22;;;33.72;;
50443;SDS011;36370;52.216;21.142;2022-09-09T15:58:05;48.13;;;28.60;;
50443;SDS011;36370;52.216;21.142;2022-09-09T16:02:08;45.50;;;29.85;;
50443;SDS011;36370;52.216;21.142;2022-09-09T16:06:12;51.15;;;29.52;;
50443;SDS011;36370;52.216;21.142;2022-09-09T16:10:15;46.78;;;28.00;;
50443;SDS011;36370;52.216;21.142;2022-09-09T16:14:18;51.35;;;30.20;;
50443;SDS011;36370;52.216;21.142;2022-09-09T16:18:20;46.72;;;27.33;;
50443;SDS011;36370;52.216;21.142;2022-09-09T16:22:23;48.25;;;27.75;;
50443;SDS011;36370;52.216;21.142;2022-09-09T16:26:26;50.10;;;29.83;;
50443;SDS011;36370;52.216;21.142;2022-09-09T16:30:33;43.92;;;27.33;;
50443;SDS011;36370;52.216;21.142;2022-09-09T16:34:38;51.17;;;29.63;;
50443;SDS011;36370;52.216;21.142;2022-09-09T16:38:41;54.70;;;31.92;;
50443;SDS011;36370;52.216;21.142;2022-09-09T16:42:44;53.20;;;29.65;;
50443;SDS011;36370;52.216;21.142;2022-09-09T16:46:47;51.60;;;31.85;;
50443;SDS011;36370;52.216;21.142;2022-09-09T16:51:06;57.88;;;34.53;;
50443;SDS011;36370;52.216;21.142;2022-09-09T16:55:12;55.10;;;31.52;;
50443;SDS011;36370;52.216;21.142;2022-09-09T16:59:19;53.13;;;30.23;;
50443;SDS011;36370;52.216;21.142;2022-09-09T17:03:22;44.67;;;28.13;;
50443;SDS011;36370;52.216;21.142;2022-09-09T17:07:25;50.95;;;28.42;;
50443;SDS011;36370;52.216;21.142;2022-09-09T17:11:28;54.22;;;30.67;;
50443;SDS011;36370;52.216;21.142;2022-09-09T17:15:31;63.00;;;34.20;;
50443;SDS011;36370;52.216;21.142;2022-09-09T17:19:33;48.92;;;30.23;;
50443;SDS011;36370;52.216;21.142;2022-09-09T17:23:36;53.42;;;31.52;;
50443;SDS011;36370;52.216;21.142;2022-09-09T17:27:42;48.97;;;28.02;;
50443;SDS011;36370;52.216;21.142;2022-09-09T17:31:44;49.72;;;29.27;;
50443;SDS011;36370;52.216;21.142;2022-09-09T17:35:48;54.33;;;31.50;;
50443;SDS011;36370;52.216;21.142;2022-09-09T17:39:54;51.45;;;29.88;;
50443;SDS011;36370;52.216;21.142;2022-09-09T17:43:57;49.00;;;32.30;;
50443;SDS011;36370;52.216;21.142;2022-09-09T17:48:00;47.25;;;26.88;;
50443;SDS011;36370;52.216;21.142;2022-09-09T17:52:02;48.63;;;26.58;;
50443;SDS011;36370;52.216;21.142;2022-09-09T17:56:05;43.17;;;26.38;;
50443;SDS011;36370;52.216;21.142;2022-09-09T18:00:16;49.08;;;27.42;;
50443;SDS011;36370;52.216;21.142;2022-09-09T18:04:20;54.10;;;27.40;;
50443;SDS011;36370;52.216;21.142;2022-09-09T18:08:22;44.13;;;24.25;;
50443;SDS011;36370;52.216;21.142;2022-09-09T18:12:24;43.25;;;25.17;;
50443;SDS011;36370;52.216;21.142;2022-09-09T18:16:29;41.28;;;23.42;;
50443;SDS011;36370;52.216;21.142;2022-09-09T18:20:35;42.03;;;24.75;;
50443;SDS011;36370;52.216;21.142;2022-09-09T18:24:38;50.70;;;28.50;;
50443;SDS011;36370;52.216;21.142;2022-09-09T18:28:41;39.85;;;23.88;;
50443;SDS011;36370;52.216;21.142;2022-09-09T18:32:44;35.92;;;23.45;;
50443;SDS011;36370;52.216;21.142;2022-09-09T18:40:57;42.45;;;23.60;;
50443;SDS011;36370;52.216;21.142;2022-09-09T18:45:00;42.20;;;23.25;;
50443;SDS011;36370;52.216;21.142;2022-09-09T18:49:03;37.13;;;21.98;;
50443;SDS011;36370;52.216;21.142;2022-09-09T18:53:06;35.25;;;22.15;;
50443;SDS011;36370;52.216;21.142;2022-09-09T18:57:08;42.92;;;22.65;;
50443;SDS011;36370;52.216;21.142;2022-09-09T19:01:14;31.83;;;20.13;;
50443;SDS011;36370;52.216;21.142;2022-09-09T19:05:16;40.60;;;24.23;;
50443;SDS011;36370;52.216;21.142;2022-09-09T19:09:18;41.17;;;24.42;;
50443;SDS011;36370;52.216;21.142;2022-09-09T19:13:21;41.90;;;23.35;;
50443;SDS011;36370;52.216;21.142;2022-09-09T19:17:23;36.78;;;23.48;;
50443;SDS011;36370;52.216;21.142;2022-09-09T19:21:32;37.67;;;22.70;;
50443;SDS011;36370;52.216;21.142;2022-09-09T19:25:38;33.77;;;21.43;;
50443;SDS011;36370;52.216;21.142;2022-09-09T19:29:43;40.80;;;23.25;;
50443;SDS011;36370;52.216;21.142;2022-09-09T19:33:46;44.33;;;26.35;;
50443;SDS011;36370;52.216;21.142;2022-09-09T19:37:49;39.85;;;24.63;;
50443;SDS011;36370;52.216;21.142;2022-09-09T19:41:51;38.65;;;21.77;;
50443;SDS011;36370;52.216;21.142;2022-09-09T19:45:55;33.45;;;21.58;;
50443;SDS011;36370;52.216;21.142;2022-09-09T19:49:59;35.78;;;24.25;;
50443;SDS011;36370;52.216;21.142;2022-09-09T19:54:03;45.42;;;27.27;;
50443;SDS011;36370;52.216;21.142;2022-09-09T19:58:10;39.22;;;23.50;;
50443;SDS011;36370;52.216;21.142;2022-09-09T20:02:13;45.28;;;27.65;;
50443;SDS011;36370;52.216;21.142;2022-09-09T20:06:17;49.92;;;29.30;;
50443;SDS011;36370;52.216;21.142;2022-09-09T20:10:22;46.38;;;28.23;;
50443;SDS011;36370;52.216;21.142;2022-09-09T20:14:24;33.95;;;21.98;;
50443;SDS011;36370;52.216;21.142;2022-09-09T20:18:27;39.60;;;23.10;;
50443;SDS011;36370;52.216;21.142;2022-09-09T20:22:33;41.85;;;26.23;;
50443;SDS011;36370;52.216;21.142;2022-09-09T20:26:35;34.13;;;21.40;;
50443;SDS011;36370;52.216;21.142;2022-09-09T20:30:38;35.70;;;23.40;;
50443;SDS011;36370;52.216;21.142;2022-09-09T20:34:41;44.22;;;24.98;;
50443;SDS011;36370;52.216;21.142;2022-09-09T20:38:50;37.67;;;25.35;;
50443;SDS011;36370;52.216;21.142;2022-09-09T20:42:58;35.72;;;23.65;;
50443;SDS011;36370;52.216;21.142;2022-09-09T20:47:01;35.50;;;21.60;;
50443;SDS011;36370;52.216;21.142;2022-09-09T20:51:07;36.15;;;22.52;;
50443;SDS011;36370;52.216;21.142;2022-09-09T20:55:11;26.08;;;18.48;;
50443;SDS011;36370;52.216;21.142;2022-09-09T20:59:15;31.10;;;21.40;;
50443;SDS011;36370;52.216;21.142;2022-09-09T21:03:19;26.70;;;18.63;;
50443;SDS011;36370;52.216;21.142;2022-09-09T21:07:21;30.70;;;21.98;;
50443;SDS011;36370;52.216;21.142;2022-09-09T21:11:23;31.73;;;20.70;;
50443;SDS011;36370;52.216;21.142;2022-09-09T21:15:26;32.47;;;21.85;;
50443;SDS011;36370;52.216;21.142;2022-09-09T21:19:28;43.00;;;26.27;;
50443;SDS011;36370;52.216;21.142;2022-09-09T21:23:31;35.25;;;24.40;;
50443;SDS011;36370;52.216;21.142;2022-09-09T21:27:33;30.48;;;20.55;;
50443;SDS011;36370;52.216;21.142;2022-09-09T21:31:35;38.20;;;25.45;;
50443;SDS011;36370;52.216;21.142;2022-09-09T21:35:39;28.17;;;19.85;;
50443;SDS011;36370;52.216;21.142;2022-09-09T21:39:42;30.20;;;22.20;;
50443;SDS011;36370;52.216;21.142;2022-09-09T21:43:45;32.03;;;20.38;;
50443;SDS011;36370;52.216;21.142;2022-09-09T21:47:52;25.52;;;18.55;;
50443;SDS011;36370;52.216;21.142;2022-09-09T21:51:54;29.65;;;19.15;;
50443;SDS011;36370;52.216;21.142;2022-09-09T21:55:59;23.95;;;18.02;;
50443;SDS011;36370;52.216;21.142;2022-09-09T22:00:05;23.60;;;16.80;;
50443;SDS011;36370;52.216;21.142;2022-09-09T22:04:13;27.13;;;19.58;;
50443;SDS011;36370;52.216;21.142;2022-09-09T22:08:16;32.53;;;22.38;;
50443;SDS011;36370;52.216;21.142;2022-09-09T22:12:19;26.67;;;17.92;;
50443;SDS011;36370;52.216;21.142;2022-09-09T22:16:21;32.40;;;23.17;;
50443;SDS011;36370;52.216;21.142;2022-09-09T22:20:25;30.98;;;20.75;;
50443;SDS011;36370;52.216;21.142;2022-09-09T22:24:26;32.85;;;22.10;;
50443;SDS011;36370;52.216;21.142;2022-09-09T22:28:32;30.02;;;20.25;;
50443;SDS011;36370;52.216;21.142;2022-09-09T22:32:36;23.17;;;17.58;;
50443;SDS011;36370;52.216;21.142;2022-09-09T22:36:38;41.63;;;25.17;;
50443;SDS011;36370;52.216;21.142;2022-09-09T22:40:41;26.52;;;19.20;;
50443;SDS011;36370;52.216;21.142;2022-09-09T22:44:43;27.15;;;18.60;;
50443;SDS011;36370;52.216;21.142;2022-09-09T22:48:45;40.20;;;23.73;;
50443;SDS011;36370;52.216;21.142;2022-09-09T22:52:48;28.85;;;19.85;;
50443;SDS011;36370;52.216;21.142;2022-09-09T22:56:50;32.22;;;20.95;;
50443;SDS011;36370;52.216;21.142;2022-09-09T23:00:52;24.30;;;17.85;;
50443;SDS011;36370;52.216;21.142;2022-09-09T23:04:59;26.42;;;17.13;;
50443;SDS011;36370;52.216;21.142;2022-09-09T23:09:05;25.58;;;16.65;;
50443;SDS011;36370;52.216;21.142;2022-09-09T23:13:07;26.95;;;17.63;;
50443;SDS011;36370;52.216;21.142;2022-09-09T23:17:10;19.80;;;14.60;;
50443;SDS011;36370;52.216;21.142;2022-09-09T23:21:17;23.27;;;15.77;;
50443;SDS011;36370;52.216;21.142;2022-09-09T23:25:20;26.90;;;17.05;;
50443;SDS011;36370;52.216;21.142;2022-09-09T23:29:23;22.10;;;15.50;;
50443;SDS011;36370;52.216;21.142;2022-09-09T23:33:26;22.52;;;17.05;;
50443;SDS011;36370;52.216;21.142;2022-09-09T23:37:28;27.58;;;17.30;;
50443;SDS011;36370;52.216;21.142;2022-09-09T23:41:32;26.83;;;16.77;;
50443;SDS011;36370;52.216;21.142;2022-09-09T23:45:36;26.88;;;16.73;;
50443;SDS011;36370;52.216;21.142;2022-09-09T23:49:38;21.70;;;14.52;;
50443;SDS011;36370;52.216;21.142;2022-09-09T23:53:40;24.98;;;16.13;;
50443;SDS011;36370;52.216;21.142;2022-09-09T23:57:45;23.42;;;16.13;;
